sensor_id;sensor_type;location;lat;lon;timestamp;temperature;humidity
39033;DHT22;24794;51.982;5.878;2022-08-19T00:00:21;21.60;99.90
39033;DHT22;24794;51.982;5.878;2022-08-19T00:01:22;21.60;99.90
39033;DHT22;24794;51.982;5.878;2022-08-19T00:02:23;21.60;99.90
39033;DHT22;24794;51.982;5.878;2022-08-19T00:03:23;21.60;99.90
39033;DHT22;24794;51.982;5.878;2022-08-19T00:04:28;21.60;99.90
39033;DHT22;24794;51.982;5.878;2022-08-19T00:05:28;21.60;99.90
39033;DHT22;24794;51.982;5.878;2022-08-19T00:06:29;21.60;99.90
39033;DHT22;24794;51.982;5.878;2022-08-19T00:07:30;21.60;99.90
39033;DHT22;24794;51.982;5.878;2022-08-19T00:08:31;21.60;99.90
39033;DHT22;24794;51.982;5.878;2022-08-19T00:09:31;21.60;99.90
39033;DHT22;24794;51.982;5.878;2022-08-19T00:10:32;21.60;99.90
39033;DHT22;24794;51.982;5.878;2022-08-19T00:11:34;21.60;99.90
39033;DHT22;24794;51.982;5.878;2022-08-19T00:12:37;21.60;99.90
39033;DHT22;24794;51.982;5.878;2022-08-19T00:13:38;21.60;99.90
39033;DHT22;24794;51.982;5.878;2022-08-19T00:14:39;21.60;99.90
39033;DHT22;24794;51.982;5.878;2022-08-19T00:15:41;21.60;99.90
39033;DHT22;24794;51.982;5.878;2022-08-19T00:16:46;21.60;99.90
39033;DHT22;24794;51.982;5.878;2022-08-19T00:17:48;21.60;99.90
39033;DHT22;24794;51.982;5.878;2022-08-19T00:18:48;21.50;99.90
39033;DHT22;24794;51.982;5.878;2022-08-19T00:19:49;21.50;99.90
39033;DHT22;24794;51.982;5.878;2022-08-19T00:20:50;21.50;99.90
39033;DHT22;24794;51.982;5.878;2022-08-19T00:21:51;21.50;99.90
39033;DHT22;24794;51.982;5.878;2022-08-19T00:22:52;21.50;99.90
39033;DHT22;24794;51.982;5.878;2022-08-19T00:23:56;21.50;99.90
39033;DHT22;24794;51.982;5.878;2022-08-19T00:24:58;21.40;99.90
39033;DHT22;24794;51.982;5.878;2022-08-19T00:25:59;21.50;99.90
39033;DHT22;24794;51.982;5.878;2022-08-19T00:26:59;21.50;99.90
39033;DHT22;24794;51.982;5.878;2022-08-19T00:28:02;21.50;99.90
39033;DHT22;24794;51.982;5.878;2022-08-19T00:29:04;21.50;99.90
39033;DHT22;24794;51.982;5.878;2022-08-19T00:30:06;21.40;99.90
39033;DHT22;24794;51.982;5.878;2022-08-19T00:31:08;21.40;99.90
39033;DHT22;24794;51.982;5.878;2022-08-19T00:32:08;21.40;99.90
39033;DHT22;24794;51.982;5.878;2022-08-19T00:33:10;21.50;99.90
39033;DHT22;24794;51.982;5.878;2022-08-19T00:34:12;21.40;99.90
39033;DHT22;24794;51.982;5.878;2022-08-19T00:35:13;21.40;99.90
39033;DHT22;24794;51.982;5.878;2022-08-19T00:36:14;21.40;99.90
39033;DHT22;24794;51.982;5.878;2022-08-19T00:37:15;21.40;99.90
39033;DHT22;24794;51.982;5.878;2022-08-19T00:38:15;21.40;99.90
39033;DHT22;24794;51.982;5.878;2022-08-19T00:39:17;21.50;99.90
39033;DHT22;24794;51.982;5.878;2022-08-19T00:40:18;21.40;99.90
39033;DHT22;24794;51.982;5.878;2022-08-19T00:41:21;21.40;99.90
39033;DHT22;24794;51.982;5.878;2022-08-19T00:42:23;21.40;99.90
39033;DHT22;24794;51.982;5.878;2022-08-19T00:43:25;21.30;99.90
39033;DHT22;24794;51.982;5.878;2022-08-19T00:44:28;21.30;99.90
39033;DHT22;24794;51.982;5.878;2022-08-19T00:45:29;21.30;99.90
39033;DHT22;24794;51.982;5.878;2022-08-19T00:46:35;21.20;99.90
39033;DHT22;24794;51.982;5.878;2022-08-19T00:47:36;21.20;99.90
39033;DHT22;24794;51.982;5.878;2022-08-19T00:48:37;21.20;99.90
39033;DHT22;24794;51.982;5.878;2022-08-19T00:49:43;21.20;99.90
39033;DHT22;24794;51.982;5.878;2022-08-19T00:50:47;21.20;99.90
39033;DHT22;24794;51.982;5.878;2022-08-19T00:51:53;21.20;99.90
39033;DHT22;24794;51.982;5.878;2022-08-19T00:52:54;21.20;99.90
39033;DHT22;24794;51.982;5.878;2022-08-19T00:53:57;21.20;99.90
39033;DHT22;24794;51.982;5.878;2022-08-19T00:54:59;21.20;99.90
39033;DHT22;24794;51.982;5.878;2022-08-19T00:56:01;21.10;99.90
39033;DHT22;24794;51.982;5.878;2022-08-19T00:57:06;21.10;99.90
39033;DHT22;24794;51.982;5.878;2022-08-19T00:58:12;21.10;99.90
39033;DHT22;24794;51.982;5.878;2022-08-19T00:59:15;21.10;99.90
39033;DHT22;24794;51.982;5.878;2022-08-19T01:00:17;21.10;99.90
39033;DHT22;24794;51.982;5.878;2022-08-19T01:01:18;21.10;99.90
39033;DHT22;24794;51.982;5.878;2022-08-19T01:02:19;21.10;99.90
39033;DHT22;24794;51.982;5.878;2022-08-19T01:03:21;21.10;99.90
39033;DHT22;24794;51.982;5.878;2022-08-19T01:04:22;21.10;99.90
39033;DHT22;24794;51.982;5.878;2022-08-19T01:05:26;21.10;99.90
39033;DHT22;24794;51.982;5.878;2022-08-19T01:06:27;21.10;99.90
39033;DHT22;24794;51.982;5.878;2022-08-19T01:07:28;21.10;99.90
39033;DHT22;24794;51.982;5.878;2022-08-19T01:08:29;21.10;99.90
39033;DHT22;24794;51.982;5.878;2022-08-19T01:09:30;21.10;99.90
39033;DHT22;24794;51.982;5.878;2022-08-19T01:10:36;21.10;99.90
39033;DHT22;24794;51.982;5.878;2022-08-19T01:11:40;21.10;99.90
39033;DHT22;24794;51.982;5.878;2022-08-19T01:12:42;21.10;99.90
39033;DHT22;24794;51.982;5.878;2022-08-19T01:13:44;21.10;99.90
39033;DHT22;24794;51.982;5.878;2022-08-19T01:14:45;21.10;99.90
39033;DHT22;24794;51.982;5.878;2022-08-19T01:15:50;21.10;99.90
39033;DHT22;24794;51.982;5.878;2022-08-19T01:16:54;21.10;99.90
39033;DHT22;24794;51.982;5.878;2022-08-19T01:17:57;21.10;99.90
39033;DHT22;24794;51.982;5.878;2022-08-19T01:19:00;21.10;99.90
39033;DHT22;24794;51.982;5.878;2022-08-19T01:20:03;21.10;99.90
39033;DHT22;24794;51.982;5.878;2022-08-19T01:21:09;21.10;99.90
39033;DHT22;24794;51.982;5.878;2022-08-19T01:23:23;21.00;99.90
39033;DHT22;24794;51.982;5.878;2022-08-19T01:24:42;21.00;99.90
39033;DHT22;24794;51.982;5.878;2022-08-19T01:25:52;21.00;99.90
39033;DHT22;24794;51.982;5.878;2022-08-19T01:26:53;21.00;99.90
39033;DHT22;24794;51.982;5.878;2022-08-19T01:27:55;21.00;99.90
39033;DHT22;24794;51.982;5.878;2022-08-19T01:28:58;21.00;99.90
39033;DHT22;24794;51.982;5.878;2022-08-19T01:29:59;21.00;99.90
39033;DHT22;24794;51.982;5.878;2022-08-19T01:31:00;21.00;99.90
39033;DHT22;24794;51.982;5.878;2022-08-19T01:32:01;21.00;99.90
39033;DHT22;24794;51.982;5.878;2022-08-19T01:33:02;21.00;99.90
39033;DHT22;24794;51.982;5.878;2022-08-19T01:34:06;21.00;99.90
39033;DHT22;24794;51.982;5.878;2022-08-19T01:35:08;21.00;99.90
39033;DHT22;24794;51.982;5.878;2022-08-19T01:36:14;21.00;99.90
39033;DHT22;24794;51.982;5.878;2022-08-19T01:37:15;21.00;99.90
39033;DHT22;24794;51.982;5.878;2022-08-19T01:38:25;21.00;99.90
39033;DHT22;24794;51.982;5.878;2022-08-19T01:39:26;21.00;99.90
39033;DHT22;24794;51.982;5.878;2022-08-19T01:40:30;20.90;99.90
39033;DHT22;24794;51.982;5.878;2022-08-19T01:41:31;20.90;99.90
39033;DHT22;24794;51.982;5.878;2022-08-19T01:42:31;21.00;99.90
39033;DHT22;24794;51.982;5.878;2022-08-19T01:43:32;21.00;99.90
39033;DHT22;24794;51.982;5.878;2022-08-19T01:44:33;20.90;99.90
39033;DHT22;24794;51.982;5.878;2022-08-19T01:45:34;21.00;99.90
39033;DHT22;24794;51.982;5.878;2022-08-19T01:46:36;21.00;99.90
39033;DHT22;24794;51.982;5.878;2022-08-19T01:47:37;21.00;99.90
39033;DHT22;24794;51.982;5.878;2022-08-19T01:48:40;20.90;99.90
39033;DHT22;24794;51.982;5.878;2022-08-19T01:49:41;21.00;99.90
39033;DHT22;24794;51.982;5.878;2022-08-19T01:50:41;20.90;99.90
39033;DHT22;24794;51.982;5.878;2022-08-19T01:51:44;20.90;99.90
39033;DHT22;24794;51.982;5.878;2022-08-19T01:52:45;20.90;99.90
39033;DHT22;24794;51.982;5.878;2022-08-19T01:53:48;20.90;99.90
39033;DHT22;24794;51.982;5.878;2022-08-19T01:54:49;20.90;99.90
39033;DHT22;24794;51.982;5.878;2022-08-19T01:55:50;20.90;99.90
39033;DHT22;24794;51.982;5.878;2022-08-19T01:56:52;20.90;99.90
39033;DHT22;24794;51.982;5.878;2022-08-19T01:57:59;20.90;99.90
39033;DHT22;24794;51.982;5.878;2022-08-19T01:59:07;20.90;99.90
39033;DHT22;24794;51.982;5.878;2022-08-19T02:00:12;20.90;99.90
39033;DHT22;24794;51.982;5.878;2022-08-19T02:01:14;20.90;99.90
39033;DHT22;24794;51.982;5.878;2022-08-19T02:02:15;20.90;99.90
39033;DHT22;24794;51.982;5.878;2022-08-19T02:03:15;20.90;99.90
39033;DHT22;24794;51.982;5.878;2022-08-19T02:04:16;20.90;99.90
39033;DHT22;24794;51.982;5.878;2022-08-19T02:05:17;20.90;99.90
39033;DHT22;24794;51.982;5.878;2022-08-19T02:06:19;20.90;99.90
39033;DHT22;24794;51.982;5.878;2022-08-19T02:07:20;20.90;99.90
39033;DHT22;24794;51.982;5.878;2022-08-19T02:08:24;20.90;99.90
39033;DHT22;24794;51.982;5.878;2022-08-19T02:09:24;20.90;99.90
39033;DHT22;24794;51.982;5.878;2022-08-19T02:10:25;20.90;99.90
39033;DHT22;24794;51.982;5.878;2022-08-19T02:11:29;20.90;99.90
39033;DHT22;24794;51.982;5.878;2022-08-19T02:12:31;21.00;99.90
39033;DHT22;24794;51.982;5.878;2022-08-19T02:13:33;20.90;99.90
39033;DHT22;24794;51.982;5.878;2022-08-19T02:14:35;21.00;99.90
39033;DHT22;24794;51.982;5.878;2022-08-19T02:15:36;21.00;99.90
39033;DHT22;24794;51.982;5.878;2022-08-19T02:16:37;21.00;99.90
39033;DHT22;24794;51.982;5.878;2022-08-19T02:17:39;21.00;99.90
39033;DHT22;24794;51.982;5.878;2022-08-19T02:18:40;21.00;99.90
39033;DHT22;24794;51.982;5.878;2022-08-19T02:19:40;21.00;99.90
39033;DHT22;24794;51.982;5.878;2022-08-19T02:20:42;21.00;99.90
39033;DHT22;24794;51.982;5.878;2022-08-19T02:21:43;21.00;99.90
39033;DHT22;24794;51.982;5.878;2022-08-19T02:22:44;21.10;99.90
39033;DHT22;24794;51.982;5.878;2022-08-19T02:23:45;21.10;99.90
39033;DHT22;24794;51.982;5.878;2022-08-19T02:24:46;21.10;99.90
39033;DHT22;24794;51.982;5.878;2022-08-19T02:25:48;21.10;99.90
39033;DHT22;24794;51.982;5.878;2022-08-19T02:26:49;21.10;99.90
39033;DHT22;24794;51.982;5.878;2022-08-19T02:27:49;21.10;99.90
39033;DHT22;24794;51.982;5.878;2022-08-19T02:28:50;21.10;99.90
39033;DHT22;24794;51.982;5.878;2022-08-19T02:29:51;21.10;99.90
39033;DHT22;24794;51.982;5.878;2022-08-19T02:30:51;21.10;99.90
39033;DHT22;24794;51.982;5.878;2022-08-19T02:31:52;21.10;99.90
39033;DHT22;24794;51.982;5.878;2022-08-19T02:32:53;21.10;99.90
39033;DHT22;24794;51.982;5.878;2022-08-19T02:33:54;21.10;99.90
39033;DHT22;24794;51.982;5.878;2022-08-19T02:34:55;21.10;99.90
39033;DHT22;24794;51.982;5.878;2022-08-19T02:35:56;21.10;99.90
39033;DHT22;24794;51.982;5.878;2022-08-19T02:36:56;21.10;99.90
39033;DHT22;24794;51.982;5.878;2022-08-19T02:37:57;21.10;99.90
39033;DHT22;24794;51.982;5.878;2022-08-19T02:39:16;21.10;99.90
39033;DHT22;24794;51.982;5.878;2022-08-19T02:40:17;21.10;99.90
39033;DHT22;24794;51.982;5.878;2022-08-19T02:41:21;21.00;99.90
39033;DHT22;24794;51.982;5.878;2022-08-19T02:42:21;21.10;99.90
39033;DHT22;24794;51.982;5.878;2022-08-19T02:43:22;21.00;99.90
39033;DHT22;24794;51.982;5.878;2022-08-19T02:44:23;21.00;99.90
39033;DHT22;24794;51.982;5.878;2022-08-19T02:45:24;21.00;99.90
39033;DHT22;24794;51.982;5.878;2022-08-19T02:46:30;21.00;99.90
39033;DHT22;24794;51.982;5.878;2022-08-19T02:47:31;21.00;99.90
39033;DHT22;24794;51.982;5.878;2022-08-19T02:48:31;21.00;99.90
39033;DHT22;24794;51.982;5.878;2022-08-19T02:49:33;21.00;99.90
39033;DHT22;24794;51.982;5.878;2022-08-19T02:50:33;20.90;99.90
39033;DHT22;24794;51.982;5.878;2022-08-19T02:51:40;20.90;99.90
39033;DHT22;24794;51.982;5.878;2022-08-19T02:52:40;20.90;99.90
39033;DHT22;24794;51.982;5.878;2022-08-19T02:53:41;20.90;99.90
39033;DHT22;24794;51.982;5.878;2022-08-19T02:54:41;20.90;99.90
39033;DHT22;24794;51.982;5.878;2022-08-19T02:55:44;20.90;99.90
39033;DHT22;24794;51.982;5.878;2022-08-19T02:56:45;20.90;99.90
39033;DHT22;24794;51.982;5.878;2022-08-19T02:57:47;20.80;99.90
39033;DHT22;24794;51.982;5.878;2022-08-19T02:58:48;20.90;99.90
39033;DHT22;24794;51.982;5.878;2022-08-19T02:59:49;20.90;99.90
39033;DHT22;24794;51.982;5.878;2022-08-19T03:00:55;20.90;99.90
39033;DHT22;24794;51.982;5.878;2022-08-19T03:01:56;20.80;99.90
39033;DHT22;24794;51.982;5.878;2022-08-19T03:02:57;20.80;99.90
39033;DHT22;24794;51.982;5.878;2022-08-19T03:04:00;20.80;99.90
39033;DHT22;24794;51.982;5.878;2022-08-19T03:05:03;20.80;99.90
39033;DHT22;24794;51.982;5.878;2022-08-19T03:06:09;20.80;99.90
39033;DHT22;24794;51.982;5.878;2022-08-19T03:07:13;20.70;99.90
39033;DHT22;24794;51.982;5.878;2022-08-19T03:08:15;20.70;99.90
39033;DHT22;24794;51.982;5.878;2022-08-19T03:09:17;20.70;99.90
39033;DHT22;24794;51.982;5.878;2022-08-19T03:10:18;20.70;99.90
39033;DHT22;24794;51.982;5.878;2022-08-19T03:11:24;20.70;99.90
39033;DHT22;24794;51.982;5.878;2022-08-19T03:12:26;20.70;99.90
39033;DHT22;24794;51.982;5.878;2022-08-19T03:13:26;20.70;99.90
39033;DHT22;24794;51.982;5.878;2022-08-19T03:14:30;20.60;99.90
39033;DHT22;24794;51.982;5.878;2022-08-19T03:15:31;20.60;99.90
39033;DHT22;24794;51.982;5.878;2022-08-19T03:16:34;20.60;99.90
39033;DHT22;24794;51.982;5.878;2022-08-19T03:17:35;20.50;99.90
39033;DHT22;24794;51.982;5.878;2022-08-19T03:18:36;20.50;99.90
39033;DHT22;24794;51.982;5.878;2022-08-19T03:19:36;20.40;99.90
39033;DHT22;24794;51.982;5.878;2022-08-19T03:20:47;20.40;99.90
39033;DHT22;24794;51.982;5.878;2022-08-19T03:21:48;20.40;99.90
39033;DHT22;24794;51.982;5.878;2022-08-19T03:22:49;20.40;99.90
39033;DHT22;24794;51.982;5.878;2022-08-19T03:23:53;20.30;99.90
39033;DHT22;24794;51.982;5.878;2022-08-19T03:24:54;20.30;99.90
39033;DHT22;24794;51.982;5.878;2022-08-19T03:25:54;20.30;99.90
39033;DHT22;24794;51.982;5.878;2022-08-19T03:26:55;20.30;99.90
39033;DHT22;24794;51.982;5.878;2022-08-19T03:27:59;20.30;99.90
39033;DHT22;24794;51.982;5.878;2022-08-19T03:29:04;20.30;99.90
39033;DHT22;24794;51.982;5.878;2022-08-19T03:30:05;20.30;99.90
39033;DHT22;24794;51.982;5.878;2022-08-19T03:31:11;20.30;99.90
39033;DHT22;24794;51.982;5.878;2022-08-19T03:32:12;20.40;99.90
39033;DHT22;24794;51.982;5.878;2022-08-19T03:33:13;20.30;99.90
39033;DHT22;24794;51.982;5.878;2022-08-19T03:34:18;20.30;99.90
39033;DHT22;24794;51.982;5.878;2022-08-19T03:35:19;20.30;99.90
39033;DHT22;24794;51.982;5.878;2022-08-19T03:36:23;20.30;99.90
39033;DHT22;24794;51.982;5.878;2022-08-19T03:37:23;20.30;99.90
39033;DHT22;24794;51.982;5.878;2022-08-19T03:38:24;20.20;99.90
39033;DHT22;24794;51.982;5.878;2022-08-19T03:39:25;20.20;99.90
39033;DHT22;24794;51.982;5.878;2022-08-19T03:40:26;20.20;99.90
39033;DHT22;24794;51.982;5.878;2022-08-19T03:41:32;20.20;99.90
39033;DHT22;24794;51.982;5.878;2022-08-19T03:42:33;20.10;99.90
39033;DHT22;24794;51.982;5.878;2022-08-19T03:43:38;20.10;99.90
39033;DHT22;24794;51.982;5.878;2022-08-19T03:44:39;20.00;99.90
39033;DHT22;24794;51.982;5.878;2022-08-19T03:45:41;20.00;99.90
39033;DHT22;24794;51.982;5.878;2022-08-19T03:46:41;20.00;99.90
39033;DHT22;24794;51.982;5.878;2022-08-19T03:47:42;20.00;99.90
39033;DHT22;24794;51.982;5.878;2022-08-19T03:48:43;19.90;99.90
39033;DHT22;24794;51.982;5.878;2022-08-19T03:49:44;19.90;99.90
39033;DHT22;24794;51.982;5.878;2022-08-19T03:50:45;19.90;99.90
39033;DHT22;24794;51.982;5.878;2022-08-19T03:51:47;19.80;99.90
39033;DHT22;24794;51.982;5.878;2022-08-19T03:52:51;19.90;99.90
39033;DHT22;24794;51.982;5.878;2022-08-19T03:53:53;19.80;99.90
39033;DHT22;24794;51.982;5.878;2022-08-19T03:54:54;19.90;99.90
39033;DHT22;24794;51.982;5.878;2022-08-19T03:55:55;19.80;99.90
39033;DHT22;24794;51.982;5.878;2022-08-19T03:56:56;19.80;99.90
39033;DHT22;24794;51.982;5.878;2022-08-19T03:57:57;19.80;99.90
39033;DHT22;24794;51.982;5.878;2022-08-19T03:58:58;19.80;99.90
39033;DHT22;24794;51.982;5.878;2022-08-19T04:00:00;19.80;99.90
39033;DHT22;24794;51.982;5.878;2022-08-19T04:01:01;19.80;99.90
39033;DHT22;24794;51.982;5.878;2022-08-19T04:02:06;19.80;99.90
39033;DHT22;24794;51.982;5.878;2022-08-19T04:03:09;19.80;99.90
39033;DHT22;24794;51.982;5.878;2022-08-19T04:04:10;19.80;99.90
39033;DHT22;24794;51.982;5.878;2022-08-19T04:05:10;19.90;99.90
39033;DHT22;24794;51.982;5.878;2022-08-19T04:06:16;19.90;99.90
39033;DHT22;24794;51.982;5.878;2022-08-19T04:07:17;19.90;99.90
39033;DHT22;24794;51.982;5.878;2022-08-19T04:08:21;19.90;99.90
39033;DHT22;24794;51.982;5.878;2022-08-19T04:09:22;20.00;99.90
39033;DHT22;24794;51.982;5.878;2022-08-19T04:10:23;20.00;99.90
39033;DHT22;24794;51.982;5.878;2022-08-19T04:11:31;20.00;99.90
39033;DHT22;24794;51.982;5.878;2022-08-19T04:12:33;20.00;99.90
39033;DHT22;24794;51.982;5.878;2022-08-19T04:13:34;20.10;99.90
39033;DHT22;24794;51.982;5.878;2022-08-19T04:14:35;20.10;99.90
39033;DHT22;24794;51.982;5.878;2022-08-19T04:15:43;20.10;99.90
39033;DHT22;24794;51.982;5.878;2022-08-19T04:16:44;20.10;99.90
39033;DHT22;24794;51.982;5.878;2022-08-19T04:17:45;20.10;99.90
39033;DHT22;24794;51.982;5.878;2022-08-19T04:18:47;20.10;99.90
39033;DHT22;24794;51.982;5.878;2022-08-19T04:19:48;20.10;99.90
39033;DHT22;24794;51.982;5.878;2022-08-19T04:20:49;20.10;99.90
39033;DHT22;24794;51.982;5.878;2022-08-19T04:21:51;20.10;99.90
39033;DHT22;24794;51.982;5.878;2022-08-19T04:22:52;20.10;99.90
39033;DHT22;24794;51.982;5.878;2022-08-19T04:23:54;20.10;99.90
39033;DHT22;24794;51.982;5.878;2022-08-19T04:24:55;20.10;99.90
39033;DHT22;24794;51.982;5.878;2022-08-19T04:25:56;20.20;99.90
39033;DHT22;24794;51.982;5.878;2022-08-19T04:26:58;20.10;99.90
39033;DHT22;24794;51.982;5.878;2022-08-19T04:27:59;20.10;99.90
39033;DHT22;24794;51.982;5.878;2022-08-19T04:29:03;20.10;99.90
39033;DHT22;24794;51.982;5.878;2022-08-19T04:30:05;20.10;99.90
39033;DHT22;24794;51.982;5.878;2022-08-19T04:31:06;20.10;99.90
39033;DHT22;24794;51.982;5.878;2022-08-19T04:32:12;20.10;99.90
39033;DHT22;24794;51.982;5.878;2022-08-19T04:33:18;20.10;99.90
39033;DHT22;24794;51.982;5.878;2022-08-19T04:34:22;20.10;99.90
39033;DHT22;24794;51.982;5.878;2022-08-19T04:35:22;20.10;99.90
39033;DHT22;24794;51.982;5.878;2022-08-19T04:36:28;20.10;99.90
39033;DHT22;24794;51.982;5.878;2022-08-19T04:37:29;20.10;99.90
39033;DHT22;24794;51.982;5.878;2022-08-19T04:38:32;20.10;99.90
39033;DHT22;24794;51.982;5.878;2022-08-19T04:39:32;20.00;99.90
39033;DHT22;24794;51.982;5.878;2022-08-19T04:40:52;20.00;99.90
39033;DHT22;24794;51.982;5.878;2022-08-19T04:42:11;20.00;99.90
39033;DHT22;24794;51.982;5.878;2022-08-19T04:43:32;19.90;99.90
39033;DHT22;24794;51.982;5.878;2022-08-19T04:44:34;19.90;99.90
39033;DHT22;24794;51.982;5.878;2022-08-19T04:45:36;19.90;99.90
39033;DHT22;24794;51.982;5.878;2022-08-19T04:46:37;19.90;99.90
39033;DHT22;24794;51.982;5.878;2022-08-19T04:47:39;19.90;99.90
39033;DHT22;24794;51.982;5.878;2022-08-19T04:48:40;19.90;99.90
39033;DHT22;24794;51.982;5.878;2022-08-19T04:49:40;19.90;99.90
39033;DHT22;24794;51.982;5.878;2022-08-19T04:50:43;19.90;99.90
39033;DHT22;24794;51.982;5.878;2022-08-19T04:51:45;19.90;99.90
39033;DHT22;24794;51.982;5.878;2022-08-19T04:52:50;19.90;99.90
39033;DHT22;24794;51.982;5.878;2022-08-19T04:53:51;19.80;99.90
39033;DHT22;24794;51.982;5.878;2022-08-19T04:54:52;19.90;99.90
39033;DHT22;24794;51.982;5.878;2022-08-19T04:55:56;19.80;99.90
39033;DHT22;24794;51.982;5.878;2022-08-19T04:56:57;19.90;99.90
39033;DHT22;24794;51.982;5.878;2022-08-19T04:57:58;19.90;99.90
39033;DHT22;24794;51.982;5.878;2022-08-19T04:58:59;19.90;99.90
39033;DHT22;24794;51.982;5.878;2022-08-19T05:00:03;19.90;99.90
39033;DHT22;24794;51.982;5.878;2022-08-19T05:01:04;19.90;99.90
39033;DHT22;24794;51.982;5.878;2022-08-19T05:02:07;19.90;99.90
39033;DHT22;24794;51.982;5.878;2022-08-19T05:03:08;19.90;99.90
39033;DHT22;24794;51.982;5.878;2022-08-19T05:04:09;19.90;99.90
39033;DHT22;24794;51.982;5.878;2022-08-19T05:05:09;19.90;99.90
39033;DHT22;24794;51.982;5.878;2022-08-19T05:06:12;19.90;99.90
39033;DHT22;24794;51.982;5.878;2022-08-19T05:07:13;19.90;99.90
39033;DHT22;24794;51.982;5.878;2022-08-19T05:08:16;19.80;99.90
39033;DHT22;24794;51.982;5.878;2022-08-19T05:09:20;19.90;99.90
39033;DHT22;24794;51.982;5.878;2022-08-19T05:10:21;19.90;99.90
39033;DHT22;24794;51.982;5.878;2022-08-19T05:11:27;19.90;99.90
39033;DHT22;24794;51.982;5.878;2022-08-19T05:12:28;19.80;99.90
39033;DHT22;24794;51.982;5.878;2022-08-19T05:13:29;19.80;99.90
39033;DHT22;24794;51.982;5.878;2022-08-19T05:14:29;19.80;99.90
39033;DHT22;24794;51.982;5.878;2022-08-19T05:15:30;19.80;99.90
39033;DHT22;24794;51.982;5.878;2022-08-19T05:16:31;19.80;99.90
39033;DHT22;24794;51.982;5.878;2022-08-19T05:17:32;19.80;99.90
39033;DHT22;24794;51.982;5.878;2022-08-19T05:18:32;19.70;99.90
39033;DHT22;24794;51.982;5.878;2022-08-19T05:19:52;19.70;99.90
39033;DHT22;24794;51.982;5.878;2022-08-19T05:21:13;19.60;99.90
39033;DHT22;24794;51.982;5.878;2022-08-19T05:22:32;19.60;99.90
39033;DHT22;24794;51.982;5.878;2022-08-19T05:23:34;19.60;99.90
39033;DHT22;24794;51.982;5.878;2022-08-19T05:24:37;19.50;99.90
39033;DHT22;24794;51.982;5.878;2022-08-19T05:25:39;19.50;99.90
39033;DHT22;24794;51.982;5.878;2022-08-19T05:26:43;19.40;99.90
39033;DHT22;24794;51.982;5.878;2022-08-19T05:27:47;19.50;99.90
39033;DHT22;24794;51.982;5.878;2022-08-19T05:28:48;19.40;99.90
39033;DHT22;24794;51.982;5.878;2022-08-19T05:29:48;19.50;99.90
39033;DHT22;24794;51.982;5.878;2022-08-19T05:30:49;19.50;99.90
39033;DHT22;24794;51.982;5.878;2022-08-19T05:31:51;19.60;99.90
39033;DHT22;24794;51.982;5.878;2022-08-19T05:32:52;19.50;99.90
39033;DHT22;24794;51.982;5.878;2022-08-19T05:33:53;19.60;99.90
39033;DHT22;24794;51.982;5.878;2022-08-19T05:34:53;19.60;99.90
39033;DHT22;24794;51.982;5.878;2022-08-19T05:35:54;19.60;99.90
39033;DHT22;24794;51.982;5.878;2022-08-19T05:36:57;19.60;99.90
39033;DHT22;24794;51.982;5.878;2022-08-19T05:37:58;19.60;99.90
39033;DHT22;24794;51.982;5.878;2022-08-19T05:38:59;19.70;99.90
39033;DHT22;24794;51.982;5.878;2022-08-19T05:39:59;19.70;99.90
39033;DHT22;24794;51.982;5.878;2022-08-19T05:41:00;19.70;99.90
39033;DHT22;24794;51.982;5.878;2022-08-19T05:42:03;19.70;99.90
39033;DHT22;24794;51.982;5.878;2022-08-19T05:43:06;19.80;99.90
39033;DHT22;24794;51.982;5.878;2022-08-19T05:44:07;19.80;99.90
39033;DHT22;24794;51.982;5.878;2022-08-19T05:45:09;19.80;99.90
39033;DHT22;24794;51.982;5.878;2022-08-19T05:46:19;19.90;99.90
39033;DHT22;24794;51.982;5.878;2022-08-19T05:47:20;19.90;99.90
39033;DHT22;24794;51.982;5.878;2022-08-19T05:48:20;19.90;99.90
39033;DHT22;24794;51.982;5.878;2022-08-19T05:49:22;19.90;99.90
39033;DHT22;24794;51.982;5.878;2022-08-19T05:50:23;20.00;99.90
39033;DHT22;24794;51.982;5.878;2022-08-19T05:51:26;20.00;99.90
39033;DHT22;24794;51.982;5.878;2022-08-19T05:52:26;20.10;99.90
39033;DHT22;24794;51.982;5.878;2022-08-19T05:53:28;20.10;99.90
39033;DHT22;24794;51.982;5.878;2022-08-19T05:54:28;20.10;99.90
39033;DHT22;24794;51.982;5.878;2022-08-19T05:55:30;20.20;99.90
39033;DHT22;24794;51.982;5.878;2022-08-19T05:56:31;20.20;99.90
39033;DHT22;24794;51.982;5.878;2022-08-19T05:57:32;20.20;99.90
39033;DHT22;24794;51.982;5.878;2022-08-19T05:58:33;20.20;99.90
39033;DHT22;24794;51.982;5.878;2022-08-19T05:59:34;20.30;99.90
39033;DHT22;24794;51.982;5.878;2022-08-19T06:00:37;20.30;99.90
39033;DHT22;24794;51.982;5.878;2022-08-19T06:01:40;20.30;99.90
39033;DHT22;24794;51.982;5.878;2022-08-19T06:02:41;20.30;99.90
39033;DHT22;24794;51.982;5.878;2022-08-19T06:03:42;20.40;99.90
39033;DHT22;24794;51.982;5.878;2022-08-19T06:04:42;20.40;99.90
39033;DHT22;24794;51.982;5.878;2022-08-19T06:05:43;20.40;99.90
39033;DHT22;24794;51.982;5.878;2022-08-19T06:06:44;20.30;99.90
39033;DHT22;24794;51.982;5.878;2022-08-19T06:07:44;20.30;99.90
39033;DHT22;24794;51.982;5.878;2022-08-19T06:08:46;20.30;99.90
39033;DHT22;24794;51.982;5.878;2022-08-19T06:09:51;20.30;99.90
39033;DHT22;24794;51.982;5.878;2022-08-19T06:10:51;20.20;99.90
39033;DHT22;24794;51.982;5.878;2022-08-19T06:11:55;20.20;99.90
39033;DHT22;24794;51.982;5.878;2022-08-19T06:12:59;20.20;99.90
39033;DHT22;24794;51.982;5.878;2022-08-19T06:14:02;20.20;99.90
39033;DHT22;24794;51.982;5.878;2022-08-19T06:15:11;20.20;99.90
39033;DHT22;24794;51.982;5.878;2022-08-19T06:16:11;20.10;99.90
39033;DHT22;24794;51.982;5.878;2022-08-19T06:17:12;20.10;99.90
39033;DHT22;24794;51.982;5.878;2022-08-19T06:18:14;20.10;99.90
39033;DHT22;24794;51.982;5.878;2022-08-19T06:19:16;20.10;99.90
39033;DHT22;24794;51.982;5.878;2022-08-19T06:20:17;20.00;99.90
39033;DHT22;24794;51.982;5.878;2022-08-19T06:21:21;20.00;99.90
39033;DHT22;24794;51.982;5.878;2022-08-19T06:22:23;20.00;99.90
39033;DHT22;24794;51.982;5.878;2022-08-19T06:23:23;20.00;99.90
39033;DHT22;24794;51.982;5.878;2022-08-19T06:24:26;20.00;99.90
39033;DHT22;24794;51.982;5.878;2022-08-19T06:25:26;20.00;99.90
39033;DHT22;24794;51.982;5.878;2022-08-19T06:26:27;20.00;99.90
39033;DHT22;24794;51.982;5.878;2022-08-19T06:27:28;20.10;99.90
39033;DHT22;24794;51.982;5.878;2022-08-19T06:28:31;20.00;99.90
39033;DHT22;24794;51.982;5.878;2022-08-19T06:29:33;20.00;99.90
39033;DHT22;24794;51.982;5.878;2022-08-19T06:30:35;20.10;99.90
39033;DHT22;24794;51.982;5.878;2022-08-19T06:31:40;20.00;99.90
39033;DHT22;24794;51.982;5.878;2022-08-19T06:32:41;20.10;99.90
39033;DHT22;24794;51.982;5.878;2022-08-19T06:33:43;20.10;99.90
39033;DHT22;24794;51.982;5.878;2022-08-19T06:34:44;20.10;99.90